Latest Coastal Weather Observations for Gannett Cay

IDQ60701

Issued at 10:55 pm EST Wednesday 27 August 2014 (issued every 10 minutes, with the page automatically refreshed every 10 minutes)

About coastal observations | Map of coastal stations | Coastal observations for QLD | Marine services | Other Formats
Station Details ID: 200831 Name: GANNET CAY Lat: -21.98 Lon: 152.47 Height: 2.3 m
Data from the previous 72 hours. | See also: Recent months for locations in Queensland
Date/Time
EST
Temp

°C
Wind Pressure Rain
since 9am
mm
Weather Cloud Vis
km
Sea
Height
m
Swell
Dir
 
Speed
knots
Gust
knots
hPa Trend Height
m
Period
s
Dir
27/10:30pm 21.0 W 9 11 1016.4 - - - - - - - - -
27/10:26pm 21.0 W 10 - 1016.5 - - - - - - - - -
27/10:00pm 21.1 W 11 13 1016.3 - - - - - - - - -
27/09:30pm 21.1 W 11 13 1016.1 - - - - - - - - -
27/09:26pm 21.1 W 11 - 1016.2 - - - - - - - - -
27/09:00pm 21.1 W 10 11 1016.0 - - - - - - - - -
27/08:30pm 21.0 NW 8 9 1015.9 - - - - - - - - -
27/08:26pm 21.0 NW 8 - 1016.0 - - - - - - - - -
27/08:00pm 20.8 WNW 9 11 1015.8 - - - - - - - - -
27/07:30pm 20.9 W 10 13 1015.6 - - - - - - - - -
27/07:26pm 20.9 W 10 - 1015.7 - - - - - - - - -
27/07:00pm 21.0 W 11 16 1015.3 - - - - - - - - -
27/06:30pm 21.0 WNW 11 13 1014.7 - - - - - - - - -
27/06:26pm 20.9 WNW 11 - 1014.8 - - - - - - - - -
27/06:00pm 20.9 W 11 13 1014.3 - - - - - - - - -
27/05:30pm 21.0 W 11 13 1014.0 - - - - - - - - -
27/05:26pm 20.9 W 11 - 1014.0 - - - - - - - - -
27/05:00pm 21.1 W 11 14 1013.8 - - - - - - - - -
27/04:30pm 21.2 WNW 11 12 1013.7 - - - - - - - - -
27/04:26pm 21.2 WNW 10 - 1013.8 - - - - - - - - -
27/04:00pm 21.3 WNW 11 13 1013.8 - - - - - - - - -
27/03:30pm 21.2 WNW 10 13 1013.7 - - - - - - - - -
27/03:26pm 21.4 WNW 10 13 1013.8 - - - - - - - - -
27/03:00pm 21.2 WNW 10 11 1013.7 - - - - - - - - -
27/02:30pm 21.0 WNW 10 11 1013.7 - - - - - - - - -
27/02:26pm 21.0 WNW 9 - 1013.8 - - - - - - - - -
27/02:00pm 20.9 WNW 9 11 1014.0 - - - - - - - - -
27/01:30pm 20.9 WNW 9 11 1014.2 - - - - - - - - -
27/01:26pm 20.9 WNW 9 - 1014.3 - - - - - - - - -
27/01:00pm 20.7 W 9 11 1014.5 - - - - - - - - -
27/12:30pm 20.6 W 9 11 1015.0 - - - - - - - - -
27/12:26pm 20.6 W 9 - 1015.1 - - - - - - - - -
27/12:00pm 20.5 W 10 12 1015.3 - - - - - - - - -
27/11:30am 20.6 W 7 8 1015.8 - - - - - - - - -
27/11:26am 20.6 W 7 - 1016.0 - - - - - - - - -
27/11:00am 20.5 W 8 10 1016.3 - - - - - - - - -
27/10:30am 20.5 W 8 9 1016.6 - - - - - - - - -
27/10:26am 20.5 WSW 8 - 1016.7 - - - - - - - - -
27/10:00am 20.5 WSW 7 9 1016.8 - - - - - - - - -
27/09:30am 20.4 WSW 9 11 1017.1 - - - - - - - - -
27/09:26am 20.4 WSW 9 - 1017.2 - - - - - - - - -
27/09:00am 20.5 WSW 8 10 1017.0 - - - - - - - - -
27/08:30am 20.4 SW 8 10 1016.8 - - - - - - - - -
27/08:26am 20.5 SW 7 - 1016.9 - - - - - - - - -
27/08:00am 20.4 SW 5 6 1016.4 - - - - - - - - -
27/07:30am 20.7 CALM 0 3 1016.0 - - - - - - - - -
27/07:26am 20.6 CALM 0 - 1016.1 - - - - - - - - -
27/07:00am 20.4 SSE 3 5 1015.7 - - - - - - - - -
27/06:30am 20.2 SW 4 5 1015.3 - - - - - - - - -
27/06:26am 20.2 WSW 3 - 1015.4 - - - - - - - - -
27/06:00am 20.1 SW 4 5 1015.0 - - - - - - - - -
27/05:30am 20.1 SW 4 6 1014.7 - - - - - - - - -
27/05:26am 20.1 SW 4 - 1014.7 - - - - - - - - -
27/05:00am 20.1 SW 5 6 1014.4 - - - - - - - - -
27/04:30am 19.8 CALM 0 0 1014.2 - - - - - - - - -
27/04:26am 19.6 CALM 0 - 1014.2 - - - - - - - - -
27/04:00am 20.0 CALM 0 0 1014.1 - - - - - - - - -
27/03:30am 20.2 WSW 3 5 1014.3 - - - - - - - - -
27/03:26am 20.3 WSW 4 - 1014.4 - - - - - - - - -
27/03:00am 20.3 SW 4 6 1014.5 - - - - - - - - -
27/02:30am 20.4 WSW 4 5 1014.7 - - - - - - - - -
27/02:26am 20.4 WSW 3 - 1014.8 - - - - - - - - -
27/02:00am 20.4 WSW 3 4 1014.9 - - - - - - - - -
27/01:30am 20.0 CALM 0 0 1015.1 - - - - - - - - -
27/01:26am 20.2 CALM 0 - 1015.2 - - - - - - - - -
27/01:00am 20.2 CALM 0 0 1015.5 - - - - - - - - -
27/12:30am 20.6 ENE 6 7 1015.4 - - - - - - - - -
27/12:26am 20.6 ENE 6 - 1015.5 - - - - - - - - -
27/12:00am 20.5 ENE 5 6 1015.6 - - - - - - - - -
 
Date/Time
EST
Temp

°C
Wind Pressure Rain
since 9am
mm
Weather Cloud Vis
km
Sea
Height
m
Swell
Dir
 
Speed
knots
Gust
knots
hPa Trend Height
m
Period
s
Dir
26/11:30pm 20.4 E 3 4 1015.8 - - - - - - - - -
26/11:26pm 20.2 E 4 - 1015.9 - - - - - - - - -
26/11:00pm 20.6 ENE 5 6 1015.9 - - - - - - - - -
26/10:30pm 20.2 E 4 6 1016.0 - - - - - - - - -
26/10:26pm 20.3 E 5 - 1016.1 - - - - - - - - -
26/10:00pm 20.2 ESE 5 6 1016.2 - - - - - - - - -
26/09:30pm 20.2 SE 5 7 1016.3 - - - - - - - - -
26/09:26pm 20.2 SE 5 - 1016.4 - - - - - - - - -
26/09:00pm 20.4 SSE 6 7 1016.3 - - - - - - - - -
26/08:30pm 20.5 S 8 9 1016.2 - - - - - - - - -
26/08:26pm 20.5 S 8 - 1016.3 - - - - - - - - -
26/08:00pm 20.6 S 9 11 1016.2 - - - - - - - - -
26/07:30pm 20.6 S 9 11 1015.8 - - - - - - - - -
26/07:26pm 20.5 S 9 - 1015.9 - - - - - - - - -
26/07:00pm 20.6 S 11 13 1015.5 - - - - - - - - -
26/06:30pm 20.6 S 12 14 1015.3 - - - - - - - - -
26/06:26pm 20.6 S 12 - 1015.4 - - - - - - - - -
26/06:00pm 20.7 S 12 14 1015.0 - - - - - - - - -
26/05:30pm 20.7 S 13 15 1014.7 - - - - - - - - -
26/05:26pm 20.7 S 13 - 1014.8 - - - - - - - - -
26/05:00pm 20.7 S 11 13 1014.6 - - - - - - - - -
26/04:30pm 21.0 S 12 14 1014.4 - - - - - - - - -
26/04:26pm 20.8 S 12 - 1014.5 - - - - - - - - -
26/04:00pm 21.0 S 12 14 1014.3 - - - - - - - - -
26/03:30pm 20.8 S 13 15 1014.2 - - - - - - - - -
26/03:26pm 20.8 S 13 - 1014.3 - - - - - - - - -
26/03:00pm 20.8 S 13 15 1014.1 - - - - - - - - -
26/02:30pm 20.6 S 13 15 1014.2 - - - - - - - - -
26/02:26pm 20.8 S 14 - 1014.4 - - - - - - - - -
26/02:00pm 20.6 S 14 16 1014.3 - - - - - - - - -
26/01:30pm 20.9 S 14 17 1014.4 - - - - - - - - -
26/01:26pm 20.8 S 14 - 1014.6 - - - - - - - - -
26/01:00pm 21.0 S 14 16 1014.7 - - - - - - - - -
26/12:30pm 20.8 S 14 16 1015.1 - - - - - - - - -
26/12:26pm 20.8 S 14 - 1015.3 - - - - - - - - -
26/12:00pm 20.9 S 14 17 1015.6 - - - - - - - - -
26/11:30am 20.9 S 15 16 1015.9 - - - - - - - - -
26/11:26am 20.9 S 15 - 1016.0 - - - - - - - - -
26/11:00am 21.2 S 14 18 1016.3 - - - - - - - - -
26/10:30am 21.2 S 16 18 1016.4 - - - - - - - - -
26/10:26am 21.2 S 16 - 1016.6 - - - - - - - - -
26/10:00am 21.1 S 16 19 1016.6 - - - - - - - - -
26/09:30am 21.4 SSE 15 17 1016.8 - - - - - - - - -
26/09:26am 21.5 SSE 16 - 1016.9 - - - - - - - - -
26/09:00am 21.3 SSE 17 20 1016.7 - - - - - - - - -
26/08:30am 21.2 S 19 22 1016.4 - - - - - - - - -
26/08:26am 21.2 S 19 - 1016.5 - - - - - - - - -
26/08:00am 21.3 S 18 22 1016.3 - - - - - - - - -
26/07:30am 21.5 SSE 17 19 1016.3 - - - - - - - - -
26/07:26am 21.6 SSE 17 - 1016.4 - - - - - - - - -
26/07:00am 21.4 SSE 17 20 1016.0 - - - - - - - - -
26/06:30am 21.3 SSE 17 19 1015.8 - - - - - - - - -
26/06:26am 21.2 SSE 18 - 1015.8 - - - - - - - - -
26/06:00am 21.1 SSE 18 22 1015.6 - - - - - - - - -
26/05:30am 21.1 SSE 18 22 1015.2 - - - - - - - - -
26/05:26am 21.1 SSE 18 - 1015.3 - - - - - - - - -
26/05:00am 21.1 SSE 18 21 1015.0 - - - - - - - - -
26/04:30am 21.0 SSE 18 21 1014.6 - - - - - - - - -
26/04:26am 21.2 SSE 19 - 1014.7 - - - - - - - - -
26/04:00am 21.1 SSE 18 22 1014.5 - - - - - - - - -
26/03:30am 21.1 SSE 19 22 1014.6 - - - - - - - - -
26/03:26am 21.2 SSE 19 - 1014.7 - - - - - - - - -
26/03:00am 21.2 SSE 19 22 1014.7 - - - - - - - - -
26/02:30am 21.2 SSE 21 23 1015.0 - - - - - - - - -
26/02:26am 21.3 SSE 20 - 1015.2 - - - - - - - - -
26/02:00am 21.2 SSE 20 23 1015.4 - - - - - - - - -
26/01:30am 21.3 SSE 18 21 1015.7 - - - - - - - - -
26/01:26am 21.3 SSE 18 - 1015.8 - - - - - - - - -
26/01:00am 21.3 SE 19 22 1016.0 - - - - - - - - -
26/12:30am 21.1 SSE 20 24 1016.1 - - - - - - - - -
26/12:26am 21.1 SSE 19 - 1016.3 - - - - - - - - -
26/12:00am 21.3 SSE 20 24 1016.5 - - - - - - - - -
 
Date/Time
EST
Temp

°C
Wind Pressure Rain
since 9am
mm
Weather Cloud Vis
km
Sea
Height
m
Swell
Dir
 
Speed
knots
Gust
knots
hPa Trend Height
m
Period
s
Dir
25/11:30pm 21.2 SSE 20 23 1016.7 - - - - - - - - -
25/11:26pm 21.2 SSE 20 - 1016.8 - - - - - - - - -
25/11:00pm 21.3 SSE 19 22 1016.8 - - - - - - - - -
25/10:30pm 21.3 SSE 19 22 1017.0 - - - - - - - - -
25/10:26pm 21.2 SSE 20 - 1017.1 - - - - - - - - -
25/10:00pm 21.3 SSE 19 22 1017.0 - - - - - - - - -
25/09:30pm 21.3 SSE 20 23 1017.1 - - - - - - - - -
25/09:26pm 21.4 SSE 21 - 1017.2 - - - - - - - - -
25/09:00pm 21.2 SSE 21 24 1017.1 - - - - - - - - -
25/08:30pm 21.3 SSE 20 24 1017.2 - - - - - - - - -
25/08:26pm 21.3 SSE 20 - 1017.3 - - - - - - - - -
25/08:00pm 21.2 SSE 21 25 1017.1 - - - - - - - - -
25/07:30pm 21.2 SSE 20 24 1017.1 - - - - - - - - -
25/07:26pm 21.4 SSE 20 - 1017.1 - - - - - - - - -
25/07:00pm 21.2 S 22 27 1016.8 - - - - - - - - -
25/06:30pm 21.1 S 21 25 1016.4 - - - - - - - - -
25/06:26pm 20.9 S 21 - 1016.4 - - - - - - - - -
25/06:00pm 20.9 S 22 25 1015.9 - - - - - - - - -
25/05:30pm 20.8 S 21 24 1015.8 - - - - - - - - -
25/05:26pm 20.9 S 21 - 1015.8 - - - - - - - - -
25/05:00pm 20.6 S 20 22 1015.7 - - - - - - - - -
25/04:30pm 20.7 S 19 22 1015.3 - - - - - - - - -
25/04:26pm 20.7 S 19 - 1015.3 - - - - - - - - -
25/04:00pm 20.8 S 20 24 1015.2 - - - - - - - - -
25/03:30pm 20.4 S 20 23 1015.2 - - - - - - - - -
25/03:26pm 20.7 S 21 - 1015.3 - - - - - - - - -
25/03:00pm 20.5 S 20 24 1015.2 - - - - - - - - -
25/02:30pm 20.4 S 19 23 1015.4 - - - - - - - - -
25/02:26pm 20.3 S 19 - 1015.6 - - - - - - - - -
25/02:00pm 20.3 S 19 22 1015.7 - - - - - - - - -
25/01:30pm 20.3 S 19 23 1015.7 - - - - - - - - -
25/01:26pm 20.2 S 19 - 1015.9 - - - - - - - - -
25/01:00pm 20.4 S 20 23 1016.1 - - - - - - - - -
25/12:30pm 20.4 S 20 24 1016.5 - - - - - - - - -
25/12:26pm 20.2 S 20 - 1016.7 - - - - - - - - -
25/12:00pm 20.5 S 21 23 1016.8 - - - - - - - - -
25/11:30am 20.6 S 19 23 1017.2 - - - - - - - - -
25/11:26am 20.5 S 19 - 1017.3 - - - - - - - - -
25/11:00am 20.5 S 20 23 1017.6 - - - - - - - - -
25/10:30am 20.5 S 20 23 1017.9 - - - - - - - - -
25/10:26am 20.7 S 20 - 1018.1 - - - - - - - - -
25/10:00am 20.5 S 21 25 1018.2 - - - - - - - - -
25/09:30am 20.6 S 20 23 1018.4 - - - - - - - - -
25/09:26am 20.8 S 20 - 1018.5 - - - - - - - - -
25/09:00am 20.7 S 20 23 1018.4 - - - - - - - - -
25/08:30am 20.7 S 21 24 1018.2 - - - - - - - - -
25/08:26am 20.7 S 22 - 1018.2 - - - - - - - - -
25/08:00am 20.9 S 22 25 1017.9 - - - - - - - - -
25/07:30am 20.6 S 23 26 1017.6 - - - - - - - - -
25/07:26am 20.6 S 23 - 1017.6 - - - - - - - - -
25/07:00am 20.8 S 21 25 1017.3 - - - - - - - - -
25/06:30am 20.7 S 23 26 1016.9 - - - - - - - - -
25/06:26am 20.7 S 22 - 1017.0 - - - - - - - - -
25/06:00am 20.8 S 23 25 1016.7 - - - - - - - - -
25/05:30am 20.9 S 22 27 1016.5 - - - - - - - - -
25/05:26am 20.9 S 23 - 1016.6 - - - - - - - - -
25/05:00am 20.8 S 22 26 1016.2 - - - - - - - - -
25/04:30am 20.9 SSE 22 25 1015.9 - - - - - - - - -
25/04:26am 20.8 SSE 22 - 1016.0 - - - - - - - - -
25/04:00am 20.9 SSE 22 26 1015.9 - - - - - - - - -
25/03:30am 20.9 SSE 23 27 1015.8 - - - - - - - - -
25/03:26am 20.9 SSE 22 - 1015.9 - - - - - - - - -
25/02:30am 20.9 SSE 22 25 1016.5 - - - - - - - - -
25/02:26am 21.0 SSE 22 - 1016.6 - - - - - - - - -
25/02:00am 21.0 SSE 24 27 1016.6 - - - - - - - - -
25/01:30am 20.9 SSE 24 28 1016.9 - - - - - - - - -
25/01:26am 21.1 SSE 23 - 1017.0 - - - - - - - - -
25/01:00am 21.0 SSE 25 28 1017.1 - - - - - - - - -
25/12:30am 21.2 SSE 25 30 1017.3 - - - - - - - - -
25/12:26am 21.1 SSE 25 - 1017.4 - - - - - - - - -
25/12:00am 20.2 SSE 23 29 1017.5 - - - - - - - - -
 
Date/Time
EST
Temp

°C
Wind Pressure Rain
since 9am
mm
Weather Cloud Vis
km
Sea
Height
m
Swell
Dir
 
Speed
knots
Gust
knots
hPa Trend Height
m
Period
s
Dir
24/11:30pm 19.3 SSE 25 30 1017.9 - - - - - - - - -
24/11:26pm 19.3 SSE 26 - 1018.0 - - - - - - - - -
24/11:00pm 20.6 SSE 24 29 1017.8 - - - - - - - - -

Other Formats:

Comma delimited format used in spreadsheet applications
http://www.bom.gov.au/fwo/IDQ60701/IDQ60701.94379.axf

JavaScript Object Notation format (JSON) in row-major order
http://www.bom.gov.au/fwo/IDQ60701/IDQ60701.94379.json